Flight Track Log - Related Links

Times and Time Zones

All times are in EDT time to prevent confusion due to time zone crossing. See the ASQ5941 flight status page for this flight to view local times or setup timezone preferences in your user account.

Time Position Orientation Groundspeed Altitude Reporting Facility
EDT Latitude Longitude Course Direction KTS MPH feet Rate Location/Type
Thu 03:25:05 PM 42.0333 -87.9167 90° East 210 242 3,700  Level Chicago TRACON
Thu 03:26:06 PM 42.0500 -87.8333 75° East 237 273 6,000 2,114 Climbing Chicago TRACON
Thu 03:28:18 PM 42.0681 -87.6075 84° East 285 328 10,500 1,938 Climbing Chicago Center
Thu 03:29:00 PM 42.1039 -86.9688 80° East  Level FlightAware Approximate
Thu 03:29:21 PM 42.0772 -87.4883 84° East 316 364 12,300  Level Chicago Center
Thu 03:30:00 PM 42.1167 -86.8103 90° East  Level FlightAware Approximate
Thu 03:30:23 PM 42.0878 -87.3658 83° East 328 377 13,900  Level Chicago Center
Thu 03:31:25 PM 42.0997 -87.2261 83° East 370 426 14,500 774 Climbing Chicago Center
Thu 03:32:27 PM 42.1111 -87.0758 84° East 399 459 15,500 1,016 Climbing Chicago Center
Thu 03:33:29 PM 42.1169 -86.9231 87° East 407 468 16,600 1,161 Climbing Chicago Center
Thu 03:34:31 PM 42.1231 -86.7356 87° East 419 482 17,900 919 Climbing Chicago Center
Thu 03:35:33 PM 42.1300 -86.5900 86° East 425 489 18,500 823 Climbing Chicago Center
Thu 03:36:35 PM 42.1344 -86.4289 88° East 430 495 19,600 1,016 Climbing Chicago Center
Thu 03:37:37 PM 42.1406 -86.2664 87° East 434 499 20,600 1,113 Climbing Chicago Center
Thu 03:38:39 PM 42.1436 -86.0664 89° East 443 510 21,900 1,113 Climbing Chicago Center
Thu 03:39:41 PM 42.1428 -85.9136 90° East 444 511 22,900 960 Climbing Chicago Center
Thu 03:40:44 PM 42.1411 -85.7461 91° East 448 516 23,900 1,104 Climbing Chicago Center
Thu 03:41:46 PM 42.1400 -85.5444 90° East 451 519 25,200 1,113 Climbing Chicago Center
Thu 03:42:48 PM 42.1372 -85.3761 91° East 451 519 26,200 886 Climbing Chicago Center
Thu 03:43:14 PM 42.1397 -85.3108 87° East 456 525 26,500 977 Climbing Cleveland Center
Thu 03:44:14 PM 42.1361 -85.1422 92° East 456 525 27,600 1,050 Climbing Cleveland Center
Thu 03:45:14 PM 42.1361 -84.9828 90° East 443 510 28,600 1,050 Climbing Cleveland Center
Thu 03:46:14 PM 42.1322 -84.8144 92° East 443 510 29,700 1,050 Climbing Cleveland Center
Thu 03:47:14 PM 42.1278 -84.6461 92° East 443 510 30,700 1,050 Climbing Cleveland Center
Thu 03:48:14 PM 42.1269 -84.4864 90° East 438 504 31,800 1,100 Climbing Cleveland Center
Thu 03:49:14 PM 42.1394 -84.2994 85° East 438 504 32,900 1,050 Climbing Cleveland Center
Thu 03:50:14 PM 42.1592 -84.1353 81° East 444 511 33,900 992 Climbing Cleveland Center
Thu 03:51:15 PM 42.1769 -83.9653 82° East 450 518 34,900 550 Climbing Cleveland Center
Thu 03:52:14 PM 42.1964 -83.7925 81° East 450 518 35,000 50 Climbing Cleveland Center
Thu 03:53:14 PM 42.2100 -83.6053 84° East 462 532 35,000  Level Cleveland Center
Thu 03:54:15 PM 42.2017 -83.4367 94° East 502 578 35,000  Level Cleveland Center
Thu 03:55:14 PM 42.1944 -83.2233 93° East 514 592 35,000  Level Cleveland Center
Thu 03:56:14 PM 42.1878 -83.0492 93° East 523 602 35,000  Level Cleveland Center
Thu 03:57:15 PM 42.1814 -82.8583 93° East 511 588 35,000  Level Cleveland Center
Thu 03:58:14 PM 42.1744 -82.6733 93° East 505 581 35,000  Level Cleveland Center
Thu 03:59:15 PM 42.1631 -82.4881 95° East 499 574 35,000  Level Cleveland Center
Thu 04:00:15 PM 42.1556 -82.3028 93° East 499 574 35,000  Level Cleveland Center
Thu 04:01:14 PM 42.1481 -82.0983 93° East 499 574 35,000  Level Cleveland Center
Thu 04:02:14 PM 42.1378 -81.9133 94° East 499 574 35,000  Level Cleveland Center
Thu 04:03:14 PM 42.1311 -81.7450 93° East 499 574 35,000  Level Cleveland Center
Thu 04:04:14 PM 42.1206 -81.5600 94° East 499 574 35,000  Level Cleveland Center
Thu 04:05:15 PM 42.1094 -81.3753 95° East 499 574 35,000  Level Cleveland Center
Thu 04:06:14 PM 42.1000 -81.1875 94° East 499 574 35,000 -101 Level Cleveland Center
Thu 04:07:14 PM 42.0883 -81.0000 95° East 504 580 34,800 -446 Descending Cleveland Center
Thu 04:08:15 PM 42.0764 -80.7958 94° East 504 580 34,100 -942 Descending Cleveland Center
Thu 04:09:15 PM 42.0664 -80.6167 94° East 485 558 32,900 -1,513 Descending Cleveland Center
Thu 04:10:14 PM 42.0558 -80.4378 94° East 480 552 31,100 -1,800 Descending Cleveland Center
Thu 04:11:15 PM 42.0428 -80.2589 96° East 480 552 29,300 -1,041 Descending Cleveland Center
Thu 04:12:15 PM 42.0339 -80.0828 94° East 480 552 29,000 -151 Descending Cleveland Center
Thu 04:13:14 PM 42.0164 -79.9236 98° East 480 552 29,000  Level Cleveland Center
Thu 04:14:15 PM 41.9986 -79.7478 98° East 480 552 29,000  Level Cleveland Center
Thu 04:15:15 PM 41.9783 -79.5664 98° East 485 558 29,000  Level Cleveland Center
Thu 04:16:14 PM 41.9581 -79.3853 99° East 485 558 29,000  Level Cleveland Center
Thu 04:17:15 PM 41.9372 -79.2042 99° East 485 558 29,000  Level Cleveland Center
Thu 04:18:15 PM 41.9178 -79.0039 97° East 485 558 29,000 -454 Level Cleveland Center
Thu 04:19:14 PM 41.8967 -78.8397 100° East 492 566 28,100 -950 Descending Cleveland Center
Thu 04:20:15 PM 41.8772 -78.6589 98° East 492 566 27,100 -992 Descending Cleveland Center
Thu 04:21:15 PM 41.8553 -78.4783 99° East 492 566 26,100 -1,008 Descending Cleveland Center
Thu 04:22:14 PM 41.8331 -78.3006 99° East 492 566 25,100 -988 Descending Cleveland Center
Thu 04:24:05 PM 41.7933 -77.9600 99° East 485 558 23,300 -737 Descending New York Center
Thu 04:25:05 PM 41.7706 -77.7853 100° East 485 558 23,000 -151 Descending New York Center
Thu 04:26:04 PM 41.7494 -77.6106 99° East 485 558 23,000  Level New York Center
Thu 04:27:05 PM 41.7258 -77.4358 100° East 480 552 23,000 -298 Level New York Center
Thu 04:28:05 PM 41.7044 -77.2586 99° East 480 552 22,400 -1,017 Descending New York Center
Thu 04:29:03 PM 41.6803 -77.0894 101° East 474 545 21,000 -1,780 Descending New York Center
Thu 04:30:03 PM 41.6597 -76.9236 99° East 469 540 18,900 -2,182 Descending New York Center
Thu 04:31:04 PM 41.6389 -76.7608 100° East 458 527 16,600 -2,132 Descending New York Center
Thu 04:32:04 PM 41.6172 -76.6144 101° East 422 486 14,600 -2,017 Descending New York Center
Thu 04:33:03 PM 41.6022 -76.4939 99° East 382 440 12,600 -1,850 Descending New York Center
Thu 04:34:04 PM 41.5833 -76.3647 101° East 355 409 10,900 -1,488 Descending New York Center
Thu 04:35:04 PM 41.5700 -76.2500 99° East 303 349 9,600 -1,240 Descending New York Center
Thu 04:36:05 PM 41.5539 -76.1489 102° East 276 318 8,400 -1,230 Descending New York Center
Thu 04:37:06 PM 41.5200 -76.0686 119° Southeast 256 295 7,100 -1,350 Descending New York Center
Thu 04:38:05 PM 41.4919 -75.9914 116° Southeast 244 281 5,700 -1,311 Descending New York Center
Thu 04:39:05 PM 41.4642 -75.9147 116° Southeast 244 281 4,500 -864 Descending New York Center
Thu 04:40:03 PM 41.4342 -75.8375 117° Southeast 244 281 4,000 -517 Descending New York Center

Login

Don't have an account? Register now (free) for customized features, flight alerts, and more!